Altamonte Springs, FL

9:55 AM EDT on April 01, 2015 (GMT -0400)
Rolling Hills | | Change Station
CLOSE
Current Station
Personal Weather Station
Location: Longwood, FL
Elevation: 121 ft
Nearby Weather Stations

Elev 121 ft 28.69 °N, 81.38 °W | Updated 11 minutes ago

Partly Cloudy
Partly Cloudy
69.4 °F
Feels Like 69.4 °F
N
0.0
Wind Variable Wind from West

Today
High -- | Low -- °F
--% Chance of Precip.
Yesterday
High -- | Low -- °F
Precip. -- in
7:15 AM 7:43 PM
Waxing Gibbous, 92% visible
Pressure 30.14 in
Visibility 10.0 miles
Clouds Clear
Dew Point 66 °F
Humidity 88%
Rainfall 0.00 in
Snow Depth Not available.
UV 2 out of 12
Pollen 10.60 out of 12
Air Quality Not available.
Flu Activity Not available.
METAR KORL 011253Z 26006KT 10SM CLR 20/18 A3013 RMK AO2 SLP205 T02000178

More Conditions Fewer Conditions

Pressure 30.14 in
Visibility 10.0 miles
Clouds Clear
Dew Point 66 °F
Humidity 88%
Rainfall 0.00 in
Snow Depth Not available.
UV 2 out of 12
Pollen 10.60 out of 12
Air Quality Not available.
Flu Activity Not available.
METAR KORL 011253Z 26006KT 10SM CLR 20/18 A3013 RMK AO2 SLP205 T02000178

More Conditions Fewer Conditions

Nowcast | as of 8:31 am EDT on April 1, 2015

sunny skies... Weak high pressure will provide sunny skies across east central Florida this morning. Temperatures will climb into the lower to middle 80s this afternoon. Light and variable winds will become generally west at 5 to 10 mph by late morning. Additional details...including graphics are available online at: http://www.Srh.NOAA.Gov/mlb/blog.Php

×

10-Day Weather Forecast

Almanac

Astronomy

Apr. 01, 2015 Rise Set
Actual Time
Civil Twilight
Nautical Twilight
Astronomical Twilight
Moon
Length of Visible Light
Length of Day
Tomorrow will be .
, % of the Moon is Illuminated

Today's Extremes

State Highs State Lows

Community

WunderPhotos

Upload Photos

1,809,957 photos uploaded!

WunderBlogs® & News

Nearby

Air Quality

  Air Quality AQ Index Pollutant
Not available.

Snow Depth

Station Depth Elevation

Earthquake Activity

City Distance Mag. Time & Date
Minimum magnitude displayed is 2.5.

Coastal Water Temperatures

Place Temperature

Stations

Nearby Weather Stations

Station Location Temp. Windchill Dew Point Humidity Wind Precip. Elev Updated Type